ラルナカ の空港の天気 - METARとTAF

ラルナカ国際空港 ( LCLK / LCA ) - キプロス ラルナカ
飛行場実況気象(Metar)
観測時間03/21 09:30 EET (03/21 07:30 UTC)
風向・風速北 4m/s
視程10km以上
天気現象
少しの雲 雲底高度 760m
気温21℃
湿度40%
気圧1011hPa
METARLCLK 210730Z 35008KT 290V040 9999 FEW025 21/07 Q1011 NOSIG
過去の天気等 Google飛行場航空写真 Wunderground天気予報

過去48時間のMETAR

飛行場予報(TAF)
発表時間: 3/21 07:30 EET (3/21 05:30 UTC)
予報対象時間: 21日8時 EET ~ 22日8時 EET
風向・風速西南西 3m/s
視程10km以上
少しの雲 雲底高度 910m
21日12時 EET ~ 21日15時 EET に徐々に
風向・風速南 7m/s
21日18時 EET ~ 21日20時 EET に徐々に
風向・風速西北西 3m/s
TAF LCLK 210530Z 2106/2206 25005KT 9999 FEW030
BECMG 2110/2113 19014KT
BECMG 2116/2118 30006KT